Time;durP1;ratioP1;P1;durP2;ratioP2;P2;SDS_P1;SDS_P2;PMS_P1;PMS_P2;Temp;Humidity;BMP_temperature;BMP_pressure;BME280_temperature;BME280_humidity;BME280_pressure;Samples;Min_cycle;Max_cycle;Signal;HPM_P1;HPM_P2
2022/09/25 00:00:55;;;;;;;12.87;11.53;;;17.70;80.70;18.10;96081.00;;;;5115758;28;20226;-79
2022/09/25 00:03:25;;;;;;;12.20;11.07;;;17.70;80.60;18.10;96083.00;;;;5114617;28;20203;-79
2022/09/25 00:06:02;;;;;;;13.27;11.87;;;17.70;80.50;18.10;96078.00;;;;5114267;28;20297;-79
2022/09/25 00:08:30;;;;;;;13.40;12.13;;;17.70;80.50;18.10;96078.00;;;;5112353;28;20607;-79
2022/09/25 00:10:57;;;;;;;12.90;11.60;;;17.70;80.50;18.10;96079.00;;;;5113466;28;20226;-79
2022/09/25 00:13:26;;;;;;;13.80;12.20;;;17.70;80.50;18.00;96078.00;;;;5113523;28;20195;-79
2022/09/25 00:15:56;;;;;;;13.00;11.53;;;17.70;80.60;18.10;96077.00;;;;5113565;28;20286;-79
2022/09/25 00:21:14;;;;;;;13.77;11.90;;;17.70;80.50;18.00;96077.00;;;;5113749;28;20233;-79
2022/09/25 00:23:43;;;;;;;12.90;11.57;;;17.70;80.50;18.00;96074.00;;;;5115012;28;20628;-80
2022/09/25 00:26:12;;;;;;;12.33;11.13;;;17.70;80.50;18.00;96073.00;;;;5115098;28;20257;-79
2022/09/25 00:28:42;;;;;;;13.80;12.37;;;17.70;80.40;18.00;96063.00;;;;5113472;28;20222;-79
2022/09/25 00:31:11;;;;;;;12.53;11.23;;;17.70;80.50;18.00;96063.00;;;;5114329;28;20659;-79
2022/09/25 00:33:38;;;;;;;12.70;11.50;;;17.60;80.20;18.00;96058.00;;;;5114306;28;20718;-79
2022/09/25 00:36:09;;;;;;;12.73;11.47;;;17.70;80.20;18.00;96058.00;;;;5112897;28;20255;-79
2022/09/25 00:38:38;;;;;;;13.07;11.77;;;17.70;80.20;18.00;96059.00;;;;5113154;28;20255;-79
2022/09/25 00:41:14;;;;;;;12.80;11.53;;;17.60;80.00;17.90;96062.00;;;;5115118;28;20686;-79
2022/09/25 00:43:47;;;;;;;13.27;11.97;;;17.60;79.90;17.90;96056.00;;;;5113972;28;20179;-79
2022/09/25 00:46:20;;;;;;;13.43;12.00;;;17.60;79.80;17.90;96052.00;;;;5094585;28;20219;-79
2022/09/25 00:48:55;;;;;;;13.53;12.23;;;17.60;79.90;17.90;96051.00;;;;5094705;28;20207;-79
2022/09/25 00:51:30;;;;;;;13.37;11.97;;;17.60;79.90;17.90;96049.00;;;;5094043;28;20218;-79
2022/09/25 00:54:03;;;;;;;12.57;11.30;;;17.60;79.90;17.90;96043.00;;;;5093646;28;20201;-79
2022/09/25 00:56:37;;;;;;;13.20;11.90;;;17.60;80.00;17.90;96046.00;;;;5092392;28;20184;-79
2022/09/25 00:59:20;;;;;;;13.27;11.87;;;17.60;80.00;17.90;96041.00;;;;5093367;28;20185;-79
2022/09/25 01:01:48;;;;;;;12.87;11.67;;;17.50;80.00;17.80;96041.00;;;;5094331;28;20234;-79
2022/09/25 01:04:17;;;;;;;12.97;11.70;;;17.50;80.00;17.90;96039.00;;;;5094221;28;20253;-79
2022/09/25 01:06:44;;;;;;;13.43;12.13;;;17.50;80.10;17.90;96041.00;;;;5094203;28;20298;-79
2022/09/25 01:09:12;;;;;;;13.13;11.83;;;17.50;80.10;17.80;96047.00;;;;5093752;28;20541;-79
2022/09/25 01:11:44;;;;;;;13.53;12.13;;;17.50;80.10;17.90;96043.00;;;;5093359;28;20223;-79
2022/09/25 01:14:16;;;;;;;14.03;11.57;;;17.50;80.20;17.90;96040.00;;;;5092537;28;20721;-79
2022/09/25 01:16:55;;;;;;;13.17;11.77;;;17.50;80.20;17.90;96040.00;;;;5093052;28;20199;-79
2022/09/25 01:19:44;;;;;;;13.70;12.30;;;17.50;80.30;17.90;96041.00;;;;5091339;28;20207;-79
2022/09/25 01:22:25;;;;;;;13.23;11.90;;;17.50;80.50;17.90;96043.00;;;;5090524;28;20701;-79
2022/09/25 01:25:10;;;;;;;13.27;11.90;;;17.50;80.30;17.90;96043.00;;;;5092531;28;20209;-79
2022/09/25 01:28:04;;;;;;;14.13;12.43;;;17.50;80.40;17.90;96038.00;;;;5092785;28;20199;-79
2022/09/25 01:30:41;;;;;;;13.70;12.30;;;17.50;80.40;17.90;96037.00;;;;5092582;28;20245;-79
2022/09/25 01:33:18;;;;;;;13.70;12.23;;;17.50;80.40;17.90;96040.00;;;;5091083;28;20215;-79
2022/09/25 01:35:53;;;;;;;13.13;11.73;;;17.50;80.50;17.90;96044.00;;;;5091845;28;20187;-79
2022/09/25 01:38:36;;;;;;;15.67;12.93;;;17.60;80.60;17.90;96023.00;;;;5092458;28;20615;-79
2022/09/25 01:41:12;;;;;;;15.83;11.87;;;17.60;81.40;17.90;96030.00;;;;5092773;28;20255;-79
2022/09/25 01:43:59;;;;;;;14.07;12.60;;;17.60;80.60;18.00;96037.00;;;;5091891;28;20183;-79
2022/09/25 01:46:34;;;;;;;13.60;12.20;;;17.60;80.60;17.90;96040.00;;;;5113205;22;20249;-83
2022/09/25 01:49:09;;;;;;;13.83;12.27;;;17.60;80.60;18.00;96040.00;;;;5072751;28;20283;-84
2022/09/25 01:51:43;;;;;;;14.30;11.87;;;17.60;80.50;17.90;96028.00;;;;5072549;28;20278;-84
2022/09/25 01:54:16;;;;;;;14.37;12.87;;;17.60;80.40;18.00;96029.00;;;;5060643;28;20220;-84
2022/09/25 01:56:52;;;;;;;13.50;12.00;;;17.60;80.30;18.00;96026.00;;;;5072140;28;20279;-84
2022/09/25 01:59:28;;;;;;;13.50;12.07;;;17.60;80.30;18.00;96012.00;;;;5082390;28;20201;-84
2022/09/25 02:02:03;;;;;;;14.60;12.20;;;17.60;80.40;18.00;96022.00;;;;5053783;28;20304;-84
2022/09/25 02:04:36;;;;;;;13.67;12.27;;;17.60;80.40;18.00;96028.00;;;;5065908;28;20792;-84
2022/09/25 02:07:10;;;;;;;13.67;12.13;;;17.60;80.50;18.00;96026.00;;;;5083591;28;20285;-84
2022/09/25 02:09:44;;;;;;;14.57;12.47;;;17.60;80.40;18.00;96024.00;;;;5071481;28;20204;-82
2022/09/25 02:12:17;;;;;;;14.50;12.67;;;17.70;80.50;18.00;96021.00;;;;5072529;28;20243;-84
2022/09/25 02:14:51;;;;;;;14.17;12.67;;;17.70;80.50;18.00;96025.00;;;;5065961;28;20270;-84
2022/09/25 02:20:32;;;;;;;15.97;12.80;;;17.70;80.50;18.00;96024.00;;;;5068276;28;20199;-84
2022/09/25 02:23:08;;;;;;;12.90;11.53;;;17.70;80.40;18.00;96021.00;;;;5070479;28;20224;-84
2022/09/25 02:25:42;;;;;;;15.97;13.03;;;17.70;80.40;18.00;96028.00;;;;5068769;28;20258;-84
2022/09/25 02:28:09;;;;;;;14.70;13.10;;;17.70;80.40;18.00;96028.00;;;;5052162;28;20192;-84
2022/09/25 02:30:36;;;;;;;15.00;12.77;;;17.70;80.30;18.00;96027.00;;;;5051639;28;20283;-84
2022/09/25 02:33:05;;;;;;;14.50;12.70;;;17.70;80.30;18.00;96021.00;;;;5051769;28;20712;-84
2022/09/25 02:35:33;;;;;;;12.73;11.43;;;17.70;80.20;18.00;96027.00;;;;5054480;28;20753;-83
2022/09/25 02:38:00;;;;;;;14.70;12.30;;;17.70;80.30;18.00;96021.00;;;;5052104;28;20684;-84
2022/09/25 02:40:41;;;;;;;13.63;12.13;;;17.70;80.20;18.00;96031.00;;;;5070574;28;20286;-83
2022/09/25 02:43:22;;;;;;;15.10;11.87;;;17.70;80.20;18.00;96027.00;;;;5092361;28;20309;-84
2022/09/25 02:46:01;;;;;;;13.77;11.87;;;17.70;80.20;18.00;96034.00;;;;5053932;28;20262;-84
2022/09/25 02:48:42;;;;;;;14.00;11.47;;;17.70;80.10;18.00;96034.00;;;;5073384;28;20241;-83
2022/09/25 02:51:21;;;;;;;13.87;11.73;;;17.70;80.10;18.00;96034.00;;;;5071969;28;20195;-84
2022/09/25 02:54:01;;;;;;;13.30;11.17;;;17.70;80.00;18.00;96038.00;;;;5056579;28;20216;-83
2022/09/25 02:56:35;;;;;;;13.53;12.13;;;17.70;80.10;18.00;96035.00;;;;5052141;28;20192;-84
2022/09/25 02:59:10;;;;;;;12.97;11.53;;;17.70;80.10;18.00;96038.00;;;;5052204;28;20745;-84
2022/09/25 03:01:42;;;;;;;14.87;11.83;;;17.70;80.10;18.00;96035.00;;;;5057511;28;20242;-83
2022/09/25 03:04:12;;;;;;;15.33;12.37;;;17.70;80.20;18.00;96028.00;;;;5083790;28;20298;-84
2022/09/25 03:06:40;;;;;;;14.27;12.60;;;17.70;80.10;18.00;96030.00;;;;5062413;28;20621;-84
2022/09/25 03:09:10;;;;;;;15.40;12.70;;;17.60;80.10;18.00;96029.00;;;;5055272;28;20192;-84
2022/09/25 03:11:40;;;;;;;15.00;12.67;;;17.60;80.10;18.00;96028.00;;;;5060334;28;20201;-84
2022/09/25 03:14:07;;;;;;;14.87;11.73;;;17.60;80.00;18.00;96020.00;;;;5073440;28;20220;-84
2022/09/25 03:16:44;;;;;;;17.50;13.93;;;17.60;80.10;18.00;96024.00;;;;5070904;28;20614;-84
2022/09/25 03:19:14;;;;;;;16.27;13.13;;;17.60;80.10;18.00;96008.00;;;;5065966;28;20200;-84
2022/09/25 03:21:41;;;;;;;18.70;13.93;;;17.60;80.10;18.00;96009.00;;;;5055086;28;20283;-84
2022/09/25 03:24:09;;;;;;;14.23;12.50;;;17.60;80.10;18.00;96005.00;;;;5057343;28;20243;-84
2022/09/25 03:26:36;;;;;;;14.97;12.67;;;17.60;80.20;18.00;96003.00;;;;5058664;28;20203;-83
2022/09/25 03:29:05;;;;;;;14.70;12.50;;;17.60;80.20;18.00;96004.00;;;;5062292;28;20645;-84
2022/09/25 03:31:32;;;;;;;16.20;13.10;;;17.60;80.20;18.00;96001.00;;;;5072713;28;20249;-84
2022/09/25 03:34:00;;;;;;;13.77;12.10;;;17.60;80.30;18.00;96005.00;;;;5055050;28;20243;-84
2022/09/25 03:36:31;;;;;;;14.20;12.50;;;17.60;80.30;18.00;96002.00;;;;5076500;28;20279;-84
2022/09/25 03:38:59;;;;;;;14.87;12.07;;;17.60;80.20;18.00;95995.00;;;;5060252;28;20579;-83
2022/09/25 03:41:29;;;;;;;17.23;13.97;;;17.60;80.20;17.90;95997.00;;;;5091749;28;20716;-83
2022/09/25 03:43:58;;;;;;;16.70;13.33;;;17.60;80.10;17.90;95985.00;;;;5063347;28;20226;-83
2022/09/25 03:46:29;;;;;;;18.13;13.30;;;17.60;80.10;17.90;95998.00;;;;5075400;28;20616;-83
2022/09/25 03:48:57;;;;;;;15.67;12.73;;;17.60;80.10;17.90;95987.00;;;;5071104;28;20200;-86
2022/09/25 03:51:26;;;;;;;15.07;12.67;;;17.60;80.10;17.90;95983.00;;;;5054663;28;20215;-84
2022/09/25 03:53:55;;;;;;;16.67;13.90;;;17.60;80.10;17.90;95983.00;;;;5071874;28;20227;-84
2022/09/25 03:56:25;;;;;;;14.53;12.60;;;17.60;80.10;17.90;95986.00;;;;5090589;28;20199;-85
2022/09/25 03:58:53;;;;;;;16.10;12.53;;;17.60;80.10;17.80;95989.00;;;;5095407;28;20199;-84
2022/09/25 04:01:21;;;;;;;16.27;13.13;;;17.60;80.10;17.80;95984.00;;;;5066771;28;20196;-84
2022/09/25 04:03:49;;;;;;;16.17;13.27;;;17.60;80.10;17.80;95985.00;;;;5067339;28;20231;-84
2022/09/25 04:06:19;;;;;;;15.63;12.83;;;17.60;80.10;17.80;95990.00;;;;5067976;28;20291;-84
2022/09/25 04:08:48;;;;;;;15.87;13.30;;;17.60;80.10;17.80;95988.00;;;;5071901;28;20226;-83
2022/09/25 04:11:19;;;;;;;14.80;12.33;;;17.50;80.00;17.80;95986.00;;;;5091414;28;20234;-83
2022/09/25 04:13:47;;;;;;;16.27;12.60;;;17.50;80.00;17.80;95987.00;;;;5061684;28;20307;-84
2022/09/25 04:16:17;;;;;;;15.40;12.80;;;17.50;80.70;17.80;95981.00;;;;5073441;28;20291;-84
2022/09/25 04:18:45;;;;;;;14.37;12.57;;;17.50;80.00;17.80;95988.00;;;;5072214;28;20218;-83
2022/09/25 04:21:15;;;;;;;15.90;13.17;;;17.50;80.10;17.80;95986.00;;;;5074540;28;20200;-84
2022/09/25 04:24:46;;;;;;;14.50;12.93;;;17.50;80.10;17.80;95971.00;;;;5061215;28;20266;-84
2022/09/25 04:26:32;;;;;;;14.67;12.10;;;17.50;80.10;17.80;95981.00;;;;5065435;28;20657;-83
2022/09/25 04:29:00;;;;;;;15.53;12.67;;;17.50;80.20;17.80;95972.00;;;;5077101;28;20195;-83
2022/09/25 04:31:27;;;;;;;15.73;12.90;;;17.50;80.10;17.80;95967.00;;;;5091840;28;20195;-84
2022/09/25 04:33:53;;;;;;;17.97;13.63;;;17.50;80.10;17.80;95963.00;;;;5057177;28;20223;-83
2022/09/25 04:36:21;;;;;;;16.30;13.60;;;17.50;80.10;17.80;95959.00;;;;5080257;28;20196;-84
2022/09/25 04:38:48;;;;;;;15.30;13.03;;;17.50;80.20;17.80;95958.00;;;;5077821;28;20284;-84
2022/09/25 04:41:18;;;;;;;15.60;12.97;;;17.50;80.20;17.80;95956.00;;;;5065917;28;20711;-84
2022/09/25 04:43:47;;;;;;;14.80;12.17;;;17.50;80.20;17.80;95955.00;;;;5084085;22;20247;-83
2022/09/25 04:46:16;;;;;;;13.97;12.37;;;17.50;80.30;17.80;95965.00;;;;5073672;28;20284;-84
2022/09/25 04:48:45;;;;;;;14.83;13.00;;;17.50;80.10;17.80;95961.00;;;;5071432;28;20206;-85
2022/09/25 04:51:13;;;;;;;15.67;13.13;;;17.50;80.10;17.80;95971.00;;;;5066519;28;20727;-83
2022/09/25 04:53:40;;;;;;;16.17;12.67;;;17.50;80.10;17.80;95977.00;;;;5060553;28;20312;-82
2022/09/25 04:56:10;;;;;;;19.50;13.40;;;17.50;80.10;17.80;95970.00;;;;5057825;28;20203;-83
2022/09/25 04:58:38;;;;;;;16.13;13.10;;;17.50;80.30;17.80;95981.00;;;;5046196;28;20850;-82
2022/09/25 05:01:09;;;;;;;15.77;13.50;;;17.50;80.20;17.80;95979.00;;;;5052702;28;20287;-83
2022/09/25 05:03:36;;;;;;;16.10;13.73;;;17.50;80.20;17.80;95976.00;;;;5052577;28;20308;-83
2022/09/25 05:06:04;;;;;;;15.17;13.17;;;17.50;80.30;17.80;95981.00;;;;5049253;28;20210;-83
2022/09/25 05:08:31;;;;;;;14.80;12.53;;;17.50;80.30;17.80;95986.00;;;;5035443;28;20193;-84
2022/09/25 05:10:58;;;;;;;15.17;13.10;;;17.50;80.30;17.80;95997.00;;;;5073131;28;20256;-82
2022/09/25 05:13:26;;;;;;;14.80;12.70;;;17.50;80.30;17.80;95991.00;;;;5044249;28;20303;-85
2022/09/25 05:15:55;;;;;;;14.57;11.80;;;17.50;80.20;17.80;95983.00;;;;5063544;28;20200;-83
2022/09/25 05:18:25;;;;;;;13.27;11.43;;;17.50;80.20;17.80;95991.00;;;;5064214;28;20201;-83
2022/09/25 05:20:53;;;;;;;12.43;10.77;;;17.50;80.30;17.80;95987.00;;;;5053036;28;20197;-85
2022/09/25 05:23:22;;;;;;;13.77;11.93;;;17.50;80.30;17.80;95995.00;;;;5037003;28;20252;-82
2022/09/25 05:25:52;;;;;;;14.90;12.50;;;17.50;80.30;17.80;95991.00;;;;5056120;28;20206;-83
2022/09/25 05:28:19;;;;;;;13.20;11.77;;;17.50;80.40;17.80;95988.00;;;;5055918;28;20191;-83
2022/09/25 05:30:46;;;;;;;14.60;11.80;;;17.50;80.40;17.80;95997.00;;;;5064001;28;20232;-82
2022/09/25 05:33:13;;;;;;;15.60;12.17;;;17.50;80.40;17.80;95993.00;;;;5062742;28;20299;-83
2022/09/25 05:35:42;;;;;;;13.40;10.73;;;17.50;81.00;17.80;95995.00;;;;5042949;28;20231;-83
2022/09/25 05:38:09;;;;;;;13.37;11.53;;;17.50;80.10;17.80;96002.00;;;;5036301;28;20229;-84
2022/09/25 05:40:37;;;;;;;14.60;11.83;;;17.50;80.10;17.70;95999.00;;;;5041764;28;20197;-83
2022/09/25 05:43:05;;;;;;;13.13;11.00;;;17.50;80.20;17.70;96003.00;;;;5048651;28;20274;-83
2022/09/25 05:45:32;;;;;;;14.20;11.73;;;17.50;80.20;17.80;96014.00;;;;5052192;28;20670;-83
2022/09/25 05:48:05;;;;;;;13.93;11.53;;;17.50;80.20;17.80;96007.00;;;;5040676;28;20193;-83
2022/09/25 05:50:33;;;;;;;14.40;11.90;;;17.50;80.30;17.80;96012.00;;;;5037294;28;20224;-83
2022/09/25 05:53:04;;;;;;;14.63;12.73;;;17.50;80.30;17.80;96012.00;;;;5050560;28;20227;-83
2022/09/25 05:55:31;;;;;;;13.90;12.33;;;17.50;80.40;17.90;96006.00;;;;5057518;28;20271;-82
2022/09/25 05:58:02;;;;;;;15.20;12.27;;;17.50;80.20;17.90;96013.00;;;;5062066;28;20224;-83
2022/09/25 06:00:31;;;;;;;13.83;11.93;;;17.50;80.30;17.90;96008.00;;;;5047586;28;20201;-83
2022/09/25 06:02:58;;;;;;;14.37;11.73;;;17.50;80.30;17.90;96010.00;;;;5032615;28;20225;-86
2022/09/25 06:05:25;;;;;;;14.07;11.60;;;17.50;80.20;17.90;96004.00;;;;5052181;28;20372;-82
2022/09/25 06:07:53;;;;;;;15.37;12.23;;;17.50;80.20;17.90;95999.00;;;;5051537;28;20207;-82
2022/09/25 06:10:25;;;;;;;14.37;11.80;;;17.50;80.80;17.90;95999.00;;;;5053934;28;20283;-83
2022/09/25 06:12:57;;;;;;;14.47;11.67;;;17.50;80.20;17.90;95997.00;;;;5050627;28;20235;-83
2022/09/25 06:15:24;;;;;;;15.77;12.40;;;17.50;80.20;17.90;95997.00;;;;5062651;28;20311;-84
2022/09/25 06:17:52;;;;;;;14.10;11.60;;;17.60;80.30;17.90;95997.00;;;;5051761;28;20246;-83
2022/09/25 06:20:20;;;;;;;15.60;12.57;;;17.60;80.50;17.90;95991.00;;;;5061308;28;20677;-83
2022/09/25 06:22:53;;;;;;;16.43;12.70;;;17.60;80.50;17.90;95997.00;;;;5059591;28;20243;-85
2022/09/25 06:25:22;;;;;;;16.13;13.63;;;17.60;80.60;18.00;95989.00;;;;5051614;28;20651;-85
2022/09/25 06:27:53;;;;;;;18.67;13.57;;;17.60;80.90;18.00;95983.00;;;;5030997;28;20202;-86
2022/09/25 06:30:21;;;;;;;17.83;13.80;;;17.60;80.70;18.00;95985.00;;;;5035439;28;20189;-87
2022/09/25 06:32:50;;;;;;;18.63;14.33;;;17.60;80.70;18.00;95981.00;;;;5055967;28;20223;-86
2022/09/25 06:35:17;;;;;;;18.53;14.10;;;17.60;80.80;18.10;95991.00;;;;5058845;28;20211;-86
2022/09/25 06:37:44;;;;;;;17.57;13.60;;;17.60;80.70;18.10;95994.00;;;;5070937;28;20282;-86
2022/09/25 06:40:11;;;;;;;19.00;13.67;;;17.60;80.60;18.10;95990.00;;;;5063941;28;20564;-87
2022/09/25 06:42:40;;;;;;;19.43;14.10;;;17.60;80.60;18.10;95988.00;;;;5056737;28;20254;-89
2022/09/25 06:45:10;;;;;;;20.63;14.70;;;17.60;80.60;18.10;95989.00;;;;5049478;28;20197;-85
2022/09/25 06:47:37;;;;;;;19.20;14.30;;;17.70;80.60;18.10;95989.00;;;;5044782;28;20197;-87
2022/09/25 06:50:05;;;;;;;21.70;14.27;;;17.70;80.50;18.10;95988.00;;;;5053978;28;20227;-85
2022/09/25 06:52:32;;;;;;;21.47;14.77;;;17.70;80.40;18.10;95993.00;;;;5056013;28;20216;-86
2022/09/25 06:54:59;;;;;;;20.80;14.70;;;17.70;81.10;18.10;95987.00;;;;5064779;28;20208;-85
2022/09/25 06:57:27;;;;;;;19.87;14.03;;;17.60;80.90;18.10;95988.00;;;;5052886;28;20199;-87
2022/09/25 06:59:56;;;;;;;20.23;13.77;;;17.70;80.30;18.10;95993.00;;;;5048873;28;20208;-86
2022/09/25 07:05:08;;;;;;;20.77;13.77;;;17.60;79.90;18.10;95988.00;;;;5055046;28;20779;-86
2022/09/25 07:07:35;;;;;;;20.73;14.30;;;17.60;79.90;18.00;95988.00;;;;5071511;28;20279;-86
2022/09/25 07:10:02;;;;;;;20.10;14.17;;;17.60;80.00;18.00;95988.00;;;;5040939;28;20203;-86
2022/09/25 07:12:31;;;;;;;19.30;13.93;;;17.60;80.00;18.00;95993.00;;;;5050012;28;20308;-86
2022/09/25 07:14:59;;;;;;;21.00;14.67;;;17.60;80.10;18.00;95996.00;;;;5057676;28;20196;-88
2022/09/25 07:17:26;;;;;;;17.97;13.47;;;17.60;80.10;18.00;95996.00;;;;5041699;28;20276;-87
2022/09/25 07:19:54;;;;;;;16.87;12.90;;;17.60;80.00;17.90;95997.00;;;;5052244;28;20277;-87
2022/09/25 07:22:21;;;;;;;18.90;13.87;;;17.60;80.00;17.90;96001.00;;;;5044045;28;20223;-86
2022/09/25 07:24:48;;;;;;;22.23;14.90;;;17.60;80.10;17.90;96004.00;;;;5072309;28;20215;-88
2022/09/25 07:27:15;;;;;;;20.33;14.07;;;17.60;80.10;17.90;96002.00;;;;5063010;28;20200;-86
2022/09/25 07:29:42;;;;;;;21.50;15.30;;;17.60;80.20;17.90;96000.00;;;;5056867;28;20283;-85
2022/09/25 07:32:10;;;;;;;20.20;14.60;;;17.60;80.20;18.00;96004.00;;;;5056271;28;20359;-86
2022/09/25 07:34:37;;;;;;;19.30;13.90;;;17.60;80.20;18.00;96007.00;;;;5057201;28;20232;-86
2022/09/25 07:37:04;;;;;;;17.17;13.53;;;17.60;80.20;18.00;96002.00;;;;5046057;28;20196;-87
2022/09/25 07:39:31;;;;;;;19.43;13.53;;;17.60;80.10;18.00;96001.00;;;;5051338;28;20216;-86
2022/09/25 07:41:59;;;;;;;17.87;12.60;;;17.60;80.70;18.00;96006.00;;;;5045457;28;20221;-88
2022/09/25 07:44:26;;;;;;;17.00;12.20;;;17.60;80.00;18.00;96002.00;;;;5055144;28;20229;-86
2022/09/25 07:46:53;;;;;;;17.73;12.67;;;17.60;80.00;18.00;96001.00;;;;5050290;28;20228;-86
2022/09/25 07:49:21;;;;;;;19.23;13.23;;;17.60;79.90;18.00;96010.00;;;;5054410;28;20283;-86
2022/09/25 07:51:48;;;;;;;19.17;14.20;;;17.60;80.00;18.00;96013.00;;;;5046338;28;20301;-85
2022/09/25 07:54:15;;;;;;;18.97;13.27;;;17.60;80.10;18.00;96010.00;;;;5047082;28;20638;-86
2022/09/25 07:56:42;;;;;;;19.70;14.20;;;17.60;80.20;18.10;96019.00;;;;5035726;28;20535;-86
2022/09/25 07:59:09;;;;;;;20.53;15.00;;;17.60;80.30;18.10;96011.00;;;;5047581;28;20206;-86
2022/09/25 08:01:37;;;;;;;19.23;14.37;;;17.70;80.40;18.10;96010.00;;;;5062714;28;20291;-86
2022/09/25 08:04:04;;;;;;;21.50;14.60;;;17.70;80.40;18.10;96005.00;;;;5052233;28;20223;-85
2022/09/25 08:06:35;;;;;;;19.93;13.83;;;17.60;80.40;18.20;96003.00;;;;5059118;28;20201;-86
2022/09/25 08:09:02;;;;;;;20.27;14.37;;;17.70;80.50;18.20;96000.00;;;;5050516;28;20291;-92
2022/09/25 08:11:30;;;;;;;21.23;14.13;;;17.70;80.40;18.20;96006.00;;;;5039836;28;20208;-86
2022/09/25 08:13:57;;;;;;;21.13;14.47;;;17.70;80.50;18.30;95995.00;;;;5054416;28;20228;-86
2022/09/25 08:16:24;;;;;;;23.03;14.97;;;17.70;80.50;18.30;96000.00;;;;5048123;28;20287;-86
2022/09/25 08:18:53;;;;;;;18.73;13.60;;;17.80;80.70;18.40;95995.00;;;;5055038;28;20279;-86
2022/09/25 08:21:21;;;;;;;18.30;13.63;;;17.80;80.60;18.40;96006.00;;;;5054305;28;20287;-88
2022/09/25 08:23:53;;;;;;;17.97;13.37;;;17.90;80.60;18.50;96005.00;;;;5033657;28;20271;-86
2022/09/25 08:26:22;;;;;;;17.77;13.40;;;17.90;80.50;18.50;96005.00;;;;5047239;28;20226;-87
2022/09/25 08:28:50;;;;;;;17.10;13.40;;;17.90;80.40;18.50;96006.00;;;;5046748;28;20640;-85
2022/09/25 08:31:18;;;;;;;16.43;13.03;;;18.00;80.30;18.60;96009.00;;;;5053085;28;20724;-86
2022/09/25 08:33:46;;;;;;;12.83;11.13;;;18.00;81.00;18.60;96001.00;;;;5058455;28;20238;-87
2022/09/25 08:36:13;;;;;;;14.87;12.07;;;18.00;80.20;18.60;96009.00;;;;5056376;28;20223;-86
2022/09/25 08:38:40;;;;;;;15.97;12.00;;;18.10;80.10;18.60;96002.00;;;;5053787;28;20288;-86
2022/09/25 08:41:16;;;;;;;14.10;11.90;;;18.10;80.00;18.60;96005.00;;;;5046483;28;20233;-87
2022/09/25 08:43:55;;;;;;;14.53;11.43;;;18.10;79.90;18.70;96002.00;;;;5033590;28;20315;-86
2022/09/25 08:49:18;;;;;;;14.50;11.87;;;18.20;79.90;18.70;95998.00;;;;5052824;28;20203;-86
2022/09/25 08:51:50;;;;;;;15.57;12.00;;;18.20;79.90;18.70;96004.00;;;;5050910;28;20204;-87
2022/09/25 08:54:23;;;;;;;14.43;11.53;;;18.20;80.00;18.70;95999.00;;;;5048907;28;20605;-87
2022/09/25 08:56:56;;;;;;;14.00;11.47;;;18.20;80.00;18.70;96008.00;;;;5039488;28;20197;-86
2022/09/25 08:59:30;;;;;;;12.93;11.03;;;18.20;79.80;18.80;96006.00;;;;5037702;28;20194;-88
2022/09/25 09:02:01;;;;;;;15.17;11.40;;;18.30;79.80;18.80;95998.00;;;;5035747;28;20298;-87
2022/09/25 09:04:32;;;;;;;12.67;11.10;;;18.30;79.80;18.80;96000.00;;;;5039429;28;20217;-87
2022/09/25 09:07:07;;;;;;;12.77;10.73;;;18.30;79.80;18.80;96003.00;;;;5044718;28;20679;-88
2022/09/25 09:09:40;;;;;;;14.17;11.73;;;18.30;79.70;18.90;95998.00;;;;5036560;28;20249;-87
2022/09/25 09:12:16;;;;;;;12.97;10.90;;;18.40;79.70;18.90;95996.00;;;;5045623;28;20573;-87
2022/09/25 09:14:48;;;;;;;11.70;10.13;;;18.40;79.80;18.90;95995.00;;;;5046767;28;20279;-93
2022/09/25 09:17:20;;;;;;;11.90;10.60;;;18.40;79.70;19.00;95994.00;;;;5045965;28;20649;-87
2022/09/25 09:19:58;;;;;;;11.90;10.43;;;18.40;79.80;19.00;95991.00;;;;5033571;28;20209;-86
2022/09/25 09:22:33;;;;;;;11.63;10.43;;;18.50;79.70;19.00;95986.00;;;;5050606;28;20304;-88
2022/09/25 09:25:17;;;;;;;11.77;10.20;;;18.50;79.70;19.10;95998.00;;;;5056778;28;20302;-86
2022/09/25 09:28:07;;;;;;;13.00;10.50;;;18.50;79.60;19.10;96003.00;;;;5049160;28;20561;-88
2022/09/25 09:30:45;;;;;;;11.80;9.73;;;18.60;79.40;19.20;95994.00;;;;5036804;28;21509;-88
2022/09/25 09:33:28;;;;;;;12.10;10.17;;;18.60;79.40;19.20;95990.00;;;;5043498;28;20298;-87
2022/09/25 09:36:13;;;;;;;11.30;9.47;;;18.60;79.60;19.30;95995.00;;;;5041831;28;20210;-86
2022/09/25 09:38:56;;;;;;;10.30;8.97;;;18.70;79.70;19.30;95996.00;;;;5041706;28;20220;-86
2022/09/25 09:41:48;;;;;;;11.90;9.70;;;18.70;79.40;19.40;95997.00;;;;5038230;28;20944;-87
2022/09/25 09:44:33;;;;;;;10.70;9.10;;;18.80;79.40;19.50;95992.00;;;;5047466;28;20726;-87
2022/09/25 09:47:21;;;;;;;10.13;9.07;;;18.80;79.10;19.50;95981.00;;;;5051276;28;20566;-86
2022/09/25 09:50:00;;;;;;;9.43;8.43;;;18.90;78.90;19.60;95986.00;;;;5063819;28;20795;-86
2022/09/25 09:52:35;;;;;;;9.97;8.57;;;18.90;78.80;19.60;95989.00;;;;5039591;28;20224;-87
2022/09/25 09:55:21;;;;;;;10.77;9.50;;;18.90;78.80;19.60;95981.00;;;;5042410;28;20209;-87
2022/09/25 09:57:53;;;;;;;10.13;8.83;;;19.00;78.90;19.60;95981.00;;;;5055646;28;20542;-87
2022/09/25 10:00:24;;;;;;;11.17;8.90;;;19.00;78.90;19.70;95982.00;;;;5054644;28;20608;-87
2022/09/25 10:02:58;;;;;;;10.00;8.73;;;19.00;78.70;19.70;95979.00;;;;5060338;28;20216;-87
2022/09/25 10:05:37;;;;;;;9.53;8.23;;;19.00;78.30;19.70;95986.00;;;;5047268;28;20226;-88
2022/09/25 10:08:05;;;;;;;8.97;8.07;;;19.10;78.40;19.70;95976.00;;;;5070647;28;20184;-90
2022/09/25 10:10:37;;;;;;;9.23;7.83;;;19.10;78.30;19.70;95971.00;;;;5059552;28;20205;-90
2022/09/25 10:13:14;;;;;;;9.53;8.33;;;19.10;78.20;19.80;95978.00;;;;5052882;28;20235;-89
2022/09/25 10:15:50;;;;;;;11.07;9.90;;;19.20;78.20;19.80;95977.00;;;;5060545;28;20196;-87
2022/09/25 10:18:20;;;;;;;9.93;8.90;;;19.20;78.30;19.80;95978.00;;;;5055356;28;20311;-86
2022/09/25 10:20:55;;;;;;;11.30;10.03;;;19.20;78.40;19.80;95977.00;;;;5058346;28;20196;-87
2022/09/25 10:23:35;;;;;;;11.83;10.23;;;19.20;78.40;19.90;95975.00;;;;5043711;28;20455;-87
2022/09/25 10:26:03;;;;;;;12.60;9.97;;;19.30;78.30;19.90;95977.00;;;;5032324;28;20283;-87
2022/09/25 10:28:35;;;;;;;11.57;9.77;;;19.30;78.30;20.00;95980.00;;;;5028724;28;20200;-86
2022/09/25 10:31:09;;;;;;;10.70;9.60;;;19.30;78.40;20.00;95987.00;;;;5043579;28;20284;-86
2022/09/25 10:33:37;;;;;;;12.43;10.43;;;19.40;78.30;20.00;95983.00;;;;5044524;28;20248;-87
2022/09/25 10:36:04;;;;;;;10.03;8.90;;;19.40;78.00;20.00;95982.00;;;;5046931;28;20571;-87
2022/09/25 10:38:40;;;;;;;10.67;9.43;;;19.40;78.00;20.00;95974.00;;;;5056274;28;20196;-86
2022/09/25 10:41:12;;;;;;;11.07;9.30;;;19.40;77.90;20.00;95967.00;;;;5032345;28;20197;-86
2022/09/25 10:43:53;;;;;;;9.87;8.87;;;19.40;77.80;20.00;95983.00;;;;5059860;23;20252;-86
2022/09/25 10:52:07;;;;;;;10.30;9.23;;;19.50;77.50;20.10;95986.00;;;;5048461;28;20232;-86
2022/09/25 10:54:35;;;;;;;10.67;9.10;;;19.50;77.60;20.10;95983.00;;;;5044768;28;20229;-85
2022/09/25 10:57:25;;;;;;;9.80;8.80;;;19.50;77.50;20.10;95981.00;;;;5048494;28;20224;-86
2022/09/25 10:59:53;;;;;;;9.67;8.67;;;19.50;77.30;20.20;95986.00;;;;5039349;28;20261;-85
2022/09/25 11:02:35;;;;;;;8.93;7.93;;;19.50;77.50;20.20;95982.00;;;;5036435;28;20224;-85
2022/09/25 11:05:18;;;;;;;9.40;8.40;;;19.60;77.40;20.30;95984.00;;;;5042267;28;20220;-86
2022/09/25 11:08:00;;;;;;;9.20;7.87;;;19.60;77.60;20.40;95979.00;;;;5043078;28;20193;-85
2022/09/25 11:10:34;;;;;;;8.03;7.33;;;19.70;77.50;20.40;95984.00;;;;5038451;28;20244;-85
2022/09/25 11:13:17;;;;;;;9.10;8.20;;;19.70;77.50;20.50;95983.00;;;;5040296;28;20199;-84
2022/09/25 11:15:59;;;;;;;7.43;6.80;;;19.80;77.30;20.50;95988.00;;;;5047224;28;20287;-85
2022/09/25 11:18:44;;;;;;;8.40;7.47;;;19.80;77.20;20.60;95979.00;;;;5045824;28;20234;-85